Time;durP1;ratioP1;P1;durP2;ratioP2;P2;SDS_P1;SDS_P2;PMS_P1;PMS_P2;Temp;Humidity;BMP_temperature;BMP_pressure;BME280_temperature;BME280_humidity;BME280_pressure;Samples;Min_cycle;Max_cycle;Signal;HPM_P1;HPM_P2
2021/10/22 00:01:42;;;;;;;;;;;;;;;7.36;73.54;99613.03;5070682;28;20001;-74
2021/10/22 00:04:08;;;;;;;;;;;;;;;7.33;73.40;99610.50;5089333;28;19924;-74
2021/10/22 00:06:33;;;;;;;;;;;;;;;7.32;73.23;99614.06;5071235;28;19951;-74
2021/10/22 00:08:58;;;;;;;;;;;;;;;7.31;73.54;99607.13;5089741;28;20371;-75
2021/10/22 00:11:24;;;;;;;;;;;;;;;7.28;73.71;99609.81;5088950;28;20365;-75
2021/10/22 00:13:49;;;;;;;;;;;;;;;7.26;73.86;99615.16;5088805;28;19995;-75
2021/10/22 00:16:15;;;;;;;;;;;;;;;7.22;73.79;99612.69;5089212;28;20393;-75
2021/10/22 00:18:40;;;;;;;;;;;;;;;7.21;73.82;99611.84;5088847;28;20016;-75
2021/10/22 00:21:06;;;;;;;;;;;;;;;7.19;74.53;99612.81;5088491;28;20416;-74
2021/10/22 00:23:31;;;;;;;;;;;;;;;7.17;75.05;99614.66;5088981;28;20378;-74
2021/10/22 00:25:57;;;;;;;;;;;;;;;7.17;75.06;99617.25;5083819;28;19966;-73
2021/10/22 00:28:22;;;;;;;;;;;;;;;7.18;74.88;99626.81;5073954;28;19916;-73
2021/10/22 00:30:47;;;;;;;;;;;;;;;7.14;75.03;99613.00;5088294;28;19927;-73
2021/10/22 00:33:12;;;;;;;;;;;;;;;7.16;75.04;99608.56;5071126;28;19923;-74
2021/10/22 00:35:38;;;;;;;;;;;;;;;7.14;74.26;99613.00;5088479;28;19916;-74
2021/10/22 00:38:06;;;;;;;;;;;;;;;7.10;74.08;99612.25;5088408;28;20433;-75
2021/10/22 00:40:31;;;;;;;;;;;;;;;7.07;73.58;99617.59;5087856;28;19920;-75
2021/10/22 00:42:56;;;;;;;;;;;;;;;7.03;73.62;99623.88;5070970;28;20295;-74
2021/10/22 00:45:22;;;;;;;;;;;;;;;7.01;73.92;99617.81;5070183;28;20284;-75
2021/10/22 00:47:52;;;;;;;;;;;;;;;6.99;73.50;99614.44;5070599;28;19920;-74
2021/10/22 00:50:18;;;;;;;;;;;;;;;6.96;73.74;99624.16;5066875;28;19952;-74
2021/10/22 00:52:44;;;;;;;;;;;;;;;6.93;73.87;99612.03;5088494;28;19986;-74
2021/10/22 00:55:11;;;;;;;;;;;;;;;6.90;73.94;99614.75;5069990;28;20514;-74
2021/10/22 00:57:38;;;;;;;;;;;;;;;6.84;74.21;99622.84;5088058;28;19923;-75
2021/10/22 01:00:03;;;;;;;;;;;;;;;6.83;74.36;99629.84;5087928;28;19922;-75
2021/10/22 01:02:29;;;;;;;;;;;;;;;6.84;74.38;99631.56;5062798;28;19919;-75
2021/10/22 01:04:54;;;;;;;;;;;;;;;6.85;74.85;99635.03;5087956;28;19920;-75
2021/10/22 01:07:20;;;;;;;;;;;;;;;6.85;74.73;99635.03;5070151;28;20409;-73
2021/10/22 01:09:46;;;;;;;;;;;;;;;6.84;74.39;99628.06;5088639;28;19923;-73
2021/10/22 01:12:11;;;;;;;;;;;;;;;6.75;74.69;99626.66;5087558;28;19936;-74
2021/10/22 01:14:37;;;;;;;;;;;;;;;6.75;74.54;99625.81;5088088;28;20273;-73
2021/10/22 01:17:02;;;;;;;;;;;;;;;6.74;74.79;99632.78;5087742;28;19923;-75
2021/10/22 01:19:29;;;;;;;;;;;;;;;6.76;74.91;99624.88;5069826;28;19916;-73
2021/10/22 01:21:54;;;;;;;;;;;;;;;6.72;75.18;99618.91;5087070;28;19927;-75
2021/10/22 01:24:19;;;;;;;;;;;;;;;6.77;74.98;99626.59;5088257;28;19919;-74
2021/10/22 01:26:45;;;;;;;;;;;;;;;6.75;75.20;99625.81;5087699;28;20429;-74
2021/10/22 01:29:10;;;;;;;;;;;;;;;6.77;75.28;99629.19;5069840;28;20022;-75
2021/10/22 01:31:37;;;;;;;;;;;;;;;6.75;75.18;99633.66;5087014;28;19932;-73
2021/10/22 01:34:03;;;;;;;;;;;;;;;6.75;75.10;99625.81;5069464;28;19946;-74
2021/10/22 01:36:28;;;;;;;;;;;;;;;6.72;74.52;99629.41;5086484;28;19916;-74
2021/10/22 01:38:54;;;;;;;;;;;;;;;6.68;74.66;99626.94;5088519;28;19916;-75
2021/10/22 01:41:20;;;;;;;;;;;;;;;6.62;74.56;99621.00;5090184;28;20003;-75
2021/10/22 01:43:46;;;;;;;;;;;;;;;6.57;74.82;99625.56;5090562;28;19920;-74
2021/10/22 01:46:11;;;;;;;;;;;;;;;6.56;74.61;99631.69;5070821;28;19916;-76
2021/10/22 01:48:37;;;;;;;;;;;;;;;6.55;74.89;99627.38;5069318;28;20290;-75
2021/10/22 01:51:03;;;;;;;;;;;;;;;6.47;74.91;99621.53;5087088;28;19920;-75
2021/10/22 01:53:28;;;;;;;;;;;;;;;6.38;75.14;99629.72;5086904;28;19965;-75
2021/10/22 01:55:53;;;;;;;;;;;;;;;6.34;75.40;99623.72;5087188;28;19918;-75
2021/10/22 01:58:19;;;;;;;;;;;;;;;6.29;75.27;99620.41;5087486;28;19916;-74
2021/10/22 02:00:44;;;;;;;;;;;;;;;6.24;74.89;99623.19;5086250;28;19964;-75
2021/10/22 02:03:09;;;;;;;;;;;;;;;6.22;75.12;99629.38;5086668;28;19924;-74
2021/10/22 02:05:35;;;;;;;;;;;;;;;6.16;75.12;99614.75;5087064;28;20406;-75
2021/10/22 02:08:00;;;;;;;;;;;;;;;6.16;75.43;99614.75;5086887;28;19924;-73
2021/10/22 02:10:25;;;;;;;;;;;;;;;6.17;75.04;99618.22;5086990;28;19916;-75
2021/10/22 02:12:51;;;;;;;;;;;;;;;6.17;75.15;99620.84;5088619;28;19993;-75
2021/10/22 02:15:16;;;;;;;;;;;;;;;6.13;74.82;99609.63;5069500;28;19927;-76
2021/10/22 02:17:41;;;;;;;;;;;;;;;6.10;74.62;99607.09;5087023;28;19952;-73
2021/10/22 02:20:07;;;;;;;;;;;;;;;6.06;74.85;99608.13;5086402;28;19922;-74
2021/10/22 02:22:32;;;;;;;;;;;;;;;6.05;74.48;99611.63;5086934;28;19954;-74
2021/10/22 02:24:57;;;;;;;;;;;;;;;6.03;74.60;99613.47;5086765;28;20621;-75
2021/10/22 02:27:23;;;;;;;;;;;;;;;5.98;75.01;99597.03;5086099;28;19920;-74
2021/10/22 02:29:48;;;;;;;;;;;;;;;5.95;74.84;99605.00;5052214;28;20446;-74
2021/10/22 02:32:13;;;;;;;;;;;;;;;5.91;74.91;99608.59;5068172;28;20332;-74
2021/10/22 02:34:38;;;;;;;;;;;;;;;5.85;74.95;99601.78;5086714;28;19916;-75
2021/10/22 02:37:03;;;;;;;;;;;;;;;5.84;75.22;99607.94;5086467;28;19916;-75
2021/10/22 02:39:33;;;;;;;;;;;;;;;5.81;75.05;99602.81;5086161;28;19916;-77
2021/10/22 02:41:59;;;;;;;;;;;;;;;5.75;75.10;99605.63;5085959;28;20126;-75
2021/10/22 02:44:24;;;;;;;;;;;;;;;5.70;75.55;99597.91;5068860;28;20016;-74
2021/10/22 02:46:49;;;;;;;;;;;;;;;5.74;75.12;99603.91;5086633;28;19958;-73
2021/10/22 02:49:15;;;;;;;;;;;;;;;5.69;74.98;99605.81;5086457;28;20012;-74
2021/10/22 02:51:40;;;;;;;;;;;;;;;5.65;75.20;99612.91;5082135;28;19969;-74
2021/10/22 02:54:05;;;;;;;;;;;;;;;5.58;75.08;99609.63;5086497;28;19927;-75
2021/10/22 02:56:30;;;;;;;;;;;;;;;5.56;75.34;99611.44;5086218;28;20000;-74
2021/10/22 02:58:55;;;;;;;;;;;;;;;5.55;75.26;99604.50;5068246;28;19971;-74
2021/10/22 03:01:21;;;;;;;;;;;;;;;5.55;74.91;99606.25;5067957;28;20347;-73
2021/10/22 03:03:46;;;;;;;;;;;;;;;5.56;74.94;99605.34;5085765;28;19920;-74
2021/10/22 03:06:11;;;;;;;;;;;;;;;5.58;75.13;99614.84;5086455;28;19917;-76
2021/10/22 03:08:36;;;;;;;;;;;;;;;5.58;75.12;99606.16;5086194;28;20433;-72
2021/10/22 03:11:02;;;;;;;;;;;;;;;5.55;74.80;99603.63;5067831;28;19916;-73
2021/10/22 03:13:27;;;;;;;;;;;;;;;5.54;75.11;99600.19;5065314;28;20433;-73
2021/10/22 03:15:52;;;;;;;;;;;;;;;5.51;74.96;99602.00;5087188;28;20019;-74
2021/10/22 03:18:17;;;;;;;;;;;;;;;5.50;74.73;99595.94;5086254;28;20043;-75
2021/10/22 03:20:43;;;;;;;;;;;;;;;5.48;74.85;99605.59;5067986;28;20602;-74
2021/10/22 03:23:08;;;;;;;;;;;;;;;5.48;74.72;99607.34;5086175;28;19918;-75
2021/10/22 03:25:34;;;;;;;;;;;;;;;5.44;74.97;99604.00;5086270;28;19923;-74
2021/10/22 03:28:04;;;;;;;;;;;;;;;5.42;74.78;99604.94;5087078;28;19921;-74
2021/10/22 03:30:30;;;;;;;;;;;;;;;5.41;74.92;99601.44;5086828;28;19916;-74
2021/10/22 03:32:55;;;;;;;;;;;;;;;5.44;74.63;99603.09;5087433;28;19916;-74
2021/10/22 03:35:20;;;;;;;;;;;;;;;5.46;74.75;99602.16;5087804;28;19939;-75
2021/10/22 03:37:45;;;;;;;;;;;;;;;5.46;74.87;99596.06;5086102;28;20027;-75
2021/10/22 03:40:11;;;;;;;;;;;;;;;5.44;74.56;99601.38;5086075;28;20025;-77
2021/10/22 03:42:36;;;;;;;;;;;;;;;5.44;74.55;99606.59;5085701;28;19952;-75
2021/10/22 03:45:02;;;;;;;;;;;;;;;5.44;74.61;99613.56;5086520;28;19923;-75
2021/10/22 03:47:27;;;;;;;;;;;;;;;5.43;75.11;99611.88;5085580;28;19943;-73
2021/10/22 03:49:53;;;;;;;;;;;;;;;5.43;74.71;99611.88;5086111;28;19924;-74
2021/10/22 03:52:18;;;;;;;;;;;;;;;5.47;74.60;99611.72;5086221;28;19916;-73
2021/10/22 03:54:43;;;;;;;;;;;;;;;5.48;74.31;99612.56;5086340;28;19931;-73
2021/10/22 03:57:08;;;;;;;;;;;;;;;5.45;73.89;99615.28;5086048;28;19920;-74
2021/10/22 03:59:33;;;;;;;;;;;;;;;5.43;74.46;99610.09;5085901;28;19916;-74
2021/10/22 04:01:59;;;;;;;;;;;;;;;5.43;74.26;99604.03;5080616;28;19923;-73
2021/10/22 04:04:28;;;;;;;;;;;;;;;5.40;74.37;99604.97;5089642;28;19931;-75
2021/10/22 04:06:54;;;;;;;;;;;;;;;5.37;73.87;99598.09;5089294;28;20128;-74
2021/10/22 04:09:20;;;;;;;;;;;;;;;5.37;74.33;99603.31;5090069;28;20393;-74
2021/10/22 04:11:45;;;;;;;;;;;;;;;5.36;73.99;99608.56;5088608;28;20016;-74
2021/10/22 04:14:11;;;;;;;;;;;;;;;5.37;74.06;99605.94;5089547;28;19908;-75
2021/10/22 04:16:36;;;;;;;;;;;;;;;5.36;73.63;99617.28;5087862;28;19969;-74
2021/10/22 04:19:01;;;;;;;;;;;;;;;5.36;73.78;99626.88;5089092;28;19940;-74
2021/10/22 04:21:27;;;;;;;;;;;;;;;5.35;73.79;99620.81;5088658;28;19923;-75
2021/10/22 04:23:52;;;;;;;;;;;;;;;5.31;74.01;99619.16;5089701;28;20010;-73
2021/10/22 04:26:17;;;;;;;;;;;;;;;5.29;73.85;99609.66;5081153;28;19916;-75
2021/10/22 04:28:43;;;;;;;;;;;;;;;5.28;73.92;99606.19;5077410;28;19920;-73
2021/10/22 04:31:08;;;;;;;;;;;;;;;5.28;73.29;99597.50;5088668;28;19928;-73
2021/10/22 04:33:33;;;;;;;;;;;;;;;5.31;73.93;99597.41;5071162;28;19920;-75
2021/10/22 04:35:58;;;;;;;;;;;;;;;5.29;72.92;99599.22;5089437;28;19908;-74
2021/10/22 04:40:54;;;;;;;;;;;;;;;5.28;72.83;99595.75;5090792;28;19973;-74
2021/10/22 04:43:20;;;;;;;;;;;;;;;5.25;72.92;99600.22;5090612;28;19920;-75
2021/10/22 04:45:47;;;;;;;;;;;;;;;5.22;72.87;99600.28;5075758;28;19969;-75
2021/10/22 04:48:13;;;;;;;;;;;;;;;5.20;72.77;99604.75;5093517;28;19920;-75
2021/10/22 04:50:42;;;;;;;;;;;;;;;5.21;73.15;99602.06;5091099;28;19955;-74
2021/10/22 04:53:08;;;;;;;;;;;;;;;5.22;72.70;99602.91;5090721;28;20276;-76
2021/10/22 04:55:33;;;;;;;;;;;;;;;5.21;72.72;99609.91;5091627;28;19937;-74
2021/10/22 04:57:59;;;;;;;;;;;;;;;5.22;72.76;99611.63;5071706;28;19965;-74
2021/10/22 05:00:24;;;;;;;;;;;;;;;5.26;72.70;99610.63;5087536;28;19951;-75
2021/10/22 05:02:49;;;;;;;;;;;;;;;5.24;72.01;99607.22;5087827;28;19920;-75
2021/10/22 05:05:15;;;;;;;;;;;;;;;5.26;71.90;99597.56;5071400;28;19908;-75
2021/10/22 05:07:41;;;;;;;;;;;;;;;5.28;72.08;99607.97;5089621;28;19928;-75
2021/10/22 05:10:07;;;;;;;;;;;;;;;5.24;72.24;99603.72;5089980;28;19927;-75
2021/10/22 05:12:32;;;;;;;;;;;;;;;5.22;72.61;99606.41;5068991;28;19923;-75
2021/10/22 05:14:58;;;;;;;;;;;;;;;5.24;72.29;99617.69;5070080;28;19908;-75
2021/10/22 05:17:23;;;;;;;;;;;;;;;5.23;71.83;99623.78;5087835;28;19966;-74
2021/10/22 05:19:49;;;;;;;;;;;;;;;5.24;71.79;99622.91;5087800;28;20057;-75
2021/10/22 05:22:14;;;;;;;;;;;;;;;5.25;71.84;99621.13;5087723;28;20460;-75
2021/10/22 05:24:39;;;;;;;;;;;;;;;5.23;72.26;99625.53;5087776;28;20065;-74
2021/10/22 05:27:04;;;;;;;;;;;;;;;5.24;71.99;99633.34;5087993;28;19924;-75
2021/10/22 05:29:30;;;;;;;;;;;;;;;5.26;71.72;99633.28;5087892;28;20000;-76
2021/10/22 05:31:55;;;;;;;;;;;;;;;5.26;71.42;99634.13;5070122;28;19922;-75
2021/10/22 05:34:21;;;;;;;;;;;;;;;5.28;71.29;99639.34;5069948;28;19947;-74
2021/10/22 05:36:50;;;;;;;;;;;;;;;5.29;71.53;99641.91;5069677;28;20412;-77
2021/10/22 05:39:16;;;;;;;;;;;;;;;5.27;70.98;99641.09;5070098;28;19916;-75
2021/10/22 05:41:42;;;;;;;;;;;;;;;5.27;71.36;99643.72;5087374;28;19970;-74
2021/10/22 05:44:07;;;;;;;;;;;;;;;5.28;71.08;99639.34;5087878;28;19920;-74
2021/10/22 05:46:33;;;;;;;;;;;;;;;5.29;70.66;99634.06;5069241;28;19927;-75
2021/10/22 05:48:58;;;;;;;;;;;;;;;5.30;70.89;99643.59;5069430;28;19962;-75
2021/10/22 05:51:23;;;;;;;;;;;;;;;5.30;71.03;99641.00;5087101;28;19959;-73
2021/10/22 05:53:49;;;;;;;;;;;;;;;5.31;70.60;99634.84;5083449;28;19913;-77
2021/10/22 05:56:14;;;;;;;;;;;;;;;5.33;70.69;99640.91;5088344;28;19920;-75
2021/10/22 05:58:39;;;;;;;;;;;;;;;5.33;70.48;99635.66;5089723;28;19995;-73
2021/10/22 06:01:04;;;;;;;;;;;;;;;5.33;70.77;99645.28;5082837;28;19920;-72
2021/10/22 06:03:30;;;;;;;;;;;;;;;5.33;70.92;99640.91;5087457;28;19920;-72
2021/10/22 06:05:55;;;;;;;;;;;;;;;5.35;70.39;99644.31;5081011;28;19925;-71
2021/10/22 06:08:21;;;;;;;;;;;;;;;5.38;70.76;99640.75;5088787;28;19977;-71
2021/10/22 06:10:47;;;;;;;;;;;;;;;5.42;70.39;99647.63;5087178;28;19954;-72
2021/10/22 06:13:14;;;;;;;;;;;;;;;5.44;69.76;99642.31;5087555;28;19920;-72
2021/10/22 06:15:40;;;;;;;;;;;;;;;5.44;69.96;99640.59;5087863;28;19916;-71
2021/10/22 06:18:05;;;;;;;;;;;;;;;5.42;70.16;99657.22;5068137;28;20379;-73
2021/10/22 06:20:42;;;;;;;;;;;;;;;5.43;69.90;99643.25;5085966;28;19920;-73
2021/10/22 06:23:53;;;;;;;;;;;;;;;5.43;69.94;99646.69;5085976;28;20294;-72
2021/10/22 06:25:53;;;;;;;;;;;;;;;5.47;70.03;99645.72;5070250;28;19920;-72
2021/10/22 06:28:18;;;;;;;;;;;;;;;5.47;70.04;99644.88;5081797;28;19935;-72
2021/10/22 06:30:43;;;;;;;;;;;;;;;5.45;69.71;99642.28;5065745;28;19924;-72
2021/10/22 06:33:09;;;;;;;;;;;;;;;5.43;69.61;99646.69;5048541;28;19916;-72
2021/10/22 06:35:34;;;;;;;;;;;;;;;5.43;69.95;99646.69;5066888;28;20010;-71
2021/10/22 06:37:59;;;;;;;;;;;;;;;5.44;69.57;99640.59;5066373;28;19971;-72
2021/10/22 06:40:24;;;;;;;;;;;;;;;5.44;69.40;99635.38;5065956;28;19924;-72
2021/10/22 06:42:51;;;;;;;;;;;;;;;5.44;69.77;99626.63;5066596;28;19916;-72
2021/10/22 06:45:16;;;;;;;;;;;;;;;5.45;69.67;99625.75;5066977;28;19916;-72
2021/10/22 06:47:41;;;;;;;;;;;;;;;5.48;69.29;99631.72;5067557;28;20402;-71
2021/10/22 06:50:07;;;;;;;;;;;;;;;5.50;69.35;99623.84;5086286;28;19926;-69
2021/10/22 06:52:32;;;;;;;;;;;;;;;5.53;69.26;99618.50;5086327;28;19927;-72
2021/10/22 06:54:57;;;;;;;;;;;;;;;5.54;69.65;99613.25;5086817;28;19996;-73
2021/10/22 06:57:23;;;;;;;;;;;;;;;5.57;69.45;99617.53;5077690;28;19946;-73
2021/10/22 06:59:48;;;;;;;;;;;;;;;5.57;69.06;99613.16;5046448;28;19985;-73
2021/10/22 07:02:13;;;;;;;;;;;;;;;5.58;68.92;99614.84;5044616;28;19927;-73
2021/10/22 07:04:47;;;;;;;;;;;;;;;5.64;68.72;99624.28;5047159;28;19924;-73
2021/10/22 07:07:15;;;;;;;;;;;;;;;5.69;69.34;99618.91;5045025;28;20335;-74
2021/10/22 07:09:41;;;;;;;;;;;;;;;5.70;68.89;99626.69;5045591;28;20007;-74
2021/10/22 07:12:07;;;;;;;;;;;;;;;5.76;68.83;99631.75;5062735;28;20387;-72
2021/10/22 07:14:35;;;;;;;;;;;;;;;5.77;68.77;99620.34;5073348;28;19932;-73
2021/10/22 07:17:01;;;;;;;;;;;;;;;5.76;68.19;99621.28;5079410;28;19920;-75
2021/10/22 07:19:26;;;;;;;;;;;;;;;5.80;68.61;99627.25;5069474;28;19982;-72
2021/10/22 07:21:52;;;;;;;;;;;;;;;5.81;68.52;99629.81;5062463;28;20495;-72
2021/10/22 07:24:20;;;;;;;;;;;;;;;5.87;68.29;99633.16;5062993;28;20336;-72
2021/10/22 07:26:46;;;;;;;;;;;;;;;5.92;68.42;99637.31;5079942;28;20024;-74
2021/10/22 07:29:11;;;;;;;;;;;;;;;5.95;68.08;99629.38;5080578;28;20413;-76
2021/10/22 07:31:36;;;;;;;;;;;;;;;6.02;68.03;99632.66;5059215;28;19912;-75
2021/10/22 07:34:02;;;;;;;;;;;;;;;6.02;67.72;99625.66;5064381;28;19973;-74
2021/10/22 07:36:28;;;;;;;;;;;;;;;6.08;67.87;99631.59;5067864;28;20440;-75
2021/10/22 07:38:53;;;;;;;;;;;;;;;6.13;67.57;99637.53;5080358;28;19924;-73
2021/10/22 07:41:19;;;;;;;;;;;;;;;6.17;67.13;99645.22;5068188;28;20458;-73
2021/10/22 07:43:44;;;;;;;;;;;;;;;6.25;67.48;99642.34;5088892;28;19920;-73
2021/10/22 07:46:10;;;;;;;;;;;;;;;6.31;67.38;99630.84;5070429;28;19924;-73
2021/10/22 07:48:35;;;;;;;;;;;;;;;6.37;66.98;99636.69;5080816;28;19925;-73
2021/10/22 07:51:00;;;;;;;;;;;;;;;6.44;67.18;99640.81;5086235;28;19919;-73
2021/10/22 07:53:26;;;;;;;;;;;;;;;6.49;66.81;99642.44;5090458;28;20000;-76
2021/10/22 07:55:51;;;;;;;;;;;;;;;6.60;66.96;99656.88;5093572;28;19956;-74
2021/10/22 07:58:16;;;;;;;;;;;;;;;6.69;66.57;99653.06;5088404;28;19986;-74
2021/10/22 08:00:42;;;;;;;;;;;;;;;6.77;66.48;99652.78;5086817;28;20016;-73
2021/10/22 08:03:07;;;;;;;;;;;;;;;6.82;66.07;99649.09;5068405;28;19924;-74
2021/10/22 08:05:32;;;;;;;;;;;;;;;6.94;66.39;99650.44;5087171;28;19920;-74
2021/10/22 08:07:58;;;;;;;;;;;;;;;7.06;66.55;99649.09;5087835;28;20028;-74
2021/10/22 08:10:23;;;;;;;;;;;;;;;7.18;67.21;99658.28;5085484;28;19923;-73
2021/10/22 08:12:49;;;;;;;;;;;;;;;7.28;65.45;99647.38;5066824;28;20379;-74
2021/10/22 08:15:14;;;;;;;;;;;;;;;7.38;65.65;99662.78;5084613;28;19916;-75
2021/10/22 08:17:39;;;;;;;;;;;;;;;7.49;65.37;99666.69;5072761;28;19978;-75
2021/10/22 08:20:08;;;;;;;;;;;;;;;7.55;65.03;99660.34;5074073;28;19919;-74
2021/10/22 08:22:34;;;;;;;;;;;;;;;7.65;64.71;99668.72;5047374;28;19935;-73
2021/10/22 08:25:00;;;;;;;;;;;;;;;7.73;65.04;99670.16;5048311;28;19925;-74
2021/10/22 08:27:29;;;;;;;;;;;;;;;7.79;64.59;99661.16;5072270;28;20299;-74
2021/10/22 08:29:55;;;;;;;;;;;;;;;7.85;64.71;99670.56;5068741;28;20007;-74
2021/10/22 08:32:20;;;;;;;;;;;;;;;7.89;64.18;99677.41;5085673;28;20015;-75
2021/10/22 08:34:46;;;;;;;;;;;;;;;7.93;64.60;99685.09;5085932;28;19920;-75
2021/10/22 08:37:11;;;;;;;;;;;;;;;7.99;64.65;99681.38;5085647;28;19952;-74
2021/10/22 08:39:42;;;;;;;;;;;;;;;8.03;64.42;99687.38;5085880;28;20449;-74
2021/10/22 08:42:10;;;;;;;;;;;;;;;8.10;63.97;99700.19;5084948;28;19973;-73
2021/10/22 08:44:36;;;;;;;;;;;;;;;8.21;64.51;99691.84;5085675;28;19924;-74
2021/10/22 08:47:02;;;;;;;;;;;;;;;8.56;63.34;99698.28;5067193;28;19924;-74
2021/10/22 08:49:27;;;;;;;;;;;;;;;9.46;60.82;99703.13;5085934;28;19920;-73
2021/10/22 08:51:56;;;;;;;;;;;;;;;10.44;57.77;99687.91;5067110;28;19966;-73
2021/10/22 08:54:21;;;;;;;;;;;;;;;11.16;55.58;99702.63;5067300;28;20539;-75
2021/10/22 08:56:47;;;;;;;;;;;;;;;11.96;53.65;99711.53;5085804;28;19968;-72
2021/10/22 08:59:12;;;;;;;;;;;;;;;12.90;50.61;99703.44;5051077;28;20007;-73
2021/10/22 09:02:01;;;;;;;;;;;;;;;13.58;49.55;99697.50;5084322;28;20438;-74
2021/10/22 09:04:30;;;;;;;;;;;;;;;14.17;47.46;99686.66;5046709;28;20388;-74
2021/10/22 09:06:55;;;;;;;;;;;;;;;14.54;46.31;99695.69;5069093;28;20446;-74
2021/10/22 09:09:20;;;;;;;;;;;;;;;15.09;45.26;99706.16;5047973;28;19924;-74
2021/10/22 09:11:46;;;;;;;;;;;;;;;15.33;44.22;99706.25;5054006;28;19974;-74
2021/10/22 09:14:16;;;;;;;;;;;;;;;15.65;43.30;99701.31;5071268;28;19920;-73
2021/10/22 09:16:53;;;;;;;;;;;;;;;15.27;44.06;99699.56;5068673;28;20001;-73
2021/10/22 09:19:36;;;;;;;;;;;;;;;15.74;43.56;99690.06;5070931;28;20387;-73
2021/10/22 09:22:21;;;;;;;;;;;;;;;16.05;42.67;99691.34;5086031;28;19920;-75
2021/10/22 09:24:57;;;;;;;;;;;;;;;16.28;41.91;99700.28;5087962;28;19920;-73
2021/10/22 09:27:36;;;;;;;;;;;;;;;16.22;42.11;99698.09;5071832;28;19925;-74
2021/10/22 09:30:04;;;;;;;;;;;;;;;16.25;42.09;99683.72;5073345;28;19969;-74
2021/10/22 09:32:30;;;;;;;;;;;;;;;16.49;41.87;99689.84;5071850;28;19928;-74
2021/10/22 09:34:55;;;;;;;;;;;;;;;16.74;41.37;99688.00;5068895;28;19917;-74
2021/10/22 09:37:20;;;;;;;;;;;;;;;16.23;41.97;99702.44;5072140;28;19939;-74
2021/10/22 09:39:46;;;;;;;;;;;;;;;16.23;42.39;99696.25;5072385;28;19920;-73
2021/10/22 09:42:13;;;;;;;;;;;;;;;15.95;43.13;99689.44;5071214;28;20376;-74
2021/10/22 09:44:43;;;;;;;;;;;;;;;15.39;44.18;99704.03;5071686;28;19952;-75
2021/10/22 09:47:08;;;;;;;;;;;;;;;15.63;43.91;99688.16;5070460;28;19931;-74
2021/10/22 09:49:38;;;;;;;;;;;;;;;15.51;43.97;99689.03;5079210;28;19919;-74
2021/10/22 09:52:20;;;;;;;;;;;;;;;15.83;43.30;99692.06;5060252;28;19919;-74
2021/10/22 09:54:46;;;;;;;;;;;;;;;16.06;42.58;99687.72;5084144;28;19920;-74
2021/10/22 09:57:14;;;;;;;;;;;;;;;15.86;43.33;99683.00;5079004;28;19942;-76
2021/10/22 09:59:39;;;;;;;;;;;;;;;15.59;43.28;99686.66;5084556;28;19920;-73
2021/10/22 10:02:07;;;;;;;;;;;;;;;15.95;42.72;99687.66;5084340;28;19958;-73
2021/10/22 10:04:32;;;;;;;;;;;;;;;15.89;42.47;99691.59;5084448;28;19951;-74
2021/10/22 10:07:01;;;;;;;;;;;;;;;16.02;42.33;99682.72;5067437;28;19963;-73
2021/10/22 10:09:27;;;;;;;;;;;;;;;16.33;41.65;99689.28;5059804;28;19924;-73
2021/10/22 10:11:54;;;;;;;;;;;;;;;16.25;42.07;99695.19;5082785;28;19920;-73
2021/10/22 10:14:21;;;;;;;;;;;;;;;16.15;41.93;99688.84;5065543;28;19920;-72
2021/10/22 10:16:48;;;;;;;;;;;;;;;15.96;42.70;99686.69;5086776;28;20019;-73
2021/10/22 10:19:13;;;;;;;;;;;;;;;15.47;43.25;99690.19;5089332;28;20359;-75
2021/10/22 10:21:40;;;;;;;;;;;;;;;14.97;43.93;99698.09;5086868;28;19924;-73
2021/10/22 10:24:06;;;;;;;;;;;;;;;14.67;45.07;99695.75;5066431;28;19924;-76
2021/10/22 10:26:32;;;;;;;;;;;;;;;14.35;46.00;99703.19;5083758;28;20155;-74
2021/10/22 10:28:59;;;;;;;;;;;;;;;13.70;47.52;99701.19;5084168;28;19978;-74
2021/10/22 10:31:30;;;;;;;;;;;;;;;13.26;49.06;99699.47;5070458;28;19920;-74
2021/10/22 10:33:57;;;;;;;;;;;;;;;13.09;49.32;99697.88;5089324;28;20456;-74
2021/10/22 10:36:41;;;;;;;;;;;;;;;12.67;50.66;99699.50;5069817;28;20399;-75
2021/10/22 10:39:06;;;;;;;;;;;;;;;12.15;51.82;99706.03;5105978;28;19922;-74
2021/10/22 10:41:37;;;;;;;;;;;;;;;12.27;52.46;99701.84;5075057;28;19916;-75
2021/10/22 10:44:21;;;;;;;;;;;;;;;11.97;52.74;99710.56;5070570;28;19916;-75
2021/10/22 10:46:47;;;;;;;;;;;;;;;11.61;54.05;99714.28;5071048;28;19920;-75
2021/10/22 10:49:32;;;;;;;;;;;;;;;11.61;53.62;99713.44;5089478;28;20006;-75
2021/10/22 10:51:57;;;;;;;;;;;;;;;11.58;53.68;99713.59;5088351;28;19920;-74
2021/10/22 10:54:26;;;;;;;;;;;;;;;11.50;54.62;99705.25;5089490;28;20341;-75
2021/10/22 10:56:52;;;;;;;;;;;;;;;11.64;54.05;99710.66;5089655;28;19956;-76
2021/10/22 10:59:37;;;;;;;;;;;;;;;11.66;54.54;99705.25;5089846;28;20046;-76
2021/10/22 11:02:02;;;;;;;;;;;;;;;11.57;54.70;99719.84;5070119;28;19920;-75
2021/10/22 11:04:45;;;;;;;;;;;;;;;11.42;55.07;99721.50;5089160;28;20288;-76
2021/10/22 11:07:29;;;;;;;;;;;;;;;11.54;54.74;99720.84;5088851;28;20353;-76
2021/10/22 11:09:57;;;;;;;;;;;;;;;11.50;54.80;99729.03;5091512;28;19966;-74
2021/10/22 11:12:22;;;;;;;;;;;;;;;11.73;54.53;99723.31;5092606;28;20337;-76
2021/10/22 11:14:58;;;;;;;;;;;;;;;11.76;54.01;99723.19;5058031;28;19920;-75
2021/10/22 11:17:29;;;;;;;;;;;;;;;11.59;54.62;99728.50;5058517;28;19920;-75
2021/10/22 11:19:57;;;;;;;;;;;;;;;11.63;54.11;99727.41;5073109;28;19916;-75
2021/10/22 11:22:26;;;;;;;;;;;;;;;11.69;53.40;99734.13;5072039;28;19917;-75
2021/10/22 11:24:51;;;;;;;;;;;;;;;11.51;53.45;99733.34;5072830;28;19916;-74
2021/10/22 11:27:18;;;;;;;;;;;;;;;11.54;54.01;99717.34;5072546;28;19920;-73
2021/10/22 11:29:43;;;;;;;;;;;;;;;11.81;53.64;99726.41;5072897;28;20370;-76
2021/10/22 11:32:10;;;;;;;;;;;;;;;11.97;53.09;99722.94;5072372;28;19928;-75
2021/10/22 11:34:37;;;;;;;;;;;;;;;11.96;52.84;99722.09;5072354;28;20007;-74
2021/10/22 11:37:06;;;;;;;;;;;;;;;12.02;52.65;99726.19;5072873;28;20338;-75
2021/10/22 11:39:49;;;;;;;;;;;;;;;12.13;52.33;99734.34;5038459;28;19935;-75
2021/10/22 11:42:17;;;;;;;;;;;;;;;12.22;52.33;99725.88;5079089;28;19923;-75
2021/10/22 11:44:47;;;;;;;;;;;;;;;12.15;52.96;99734.25;5092362;28;19927;-74
2021/10/22 11:47:13;;;;;;;;;;;;;;;12.08;52.49;99730.25;5074408;28;19927;-75
2021/10/22 11:49:38;;;;;;;;;;;;;;;12.10;53.49;99731.03;5093247;28;19920;-75
2021/10/22 11:52:05;;;;;;;;;;;;;;;12.18;53.36;99732.31;5092109;28;20066;-79
2021/10/22 11:54:41;;;;;;;;;;;;;;;12.15;53.38;99732.47;5074163;28;19916;-75
2021/10/22 11:57:20;;;;;;;;;;;;;;;12.10;53.34;99737.16;5092538;28;19923;-75
2021/10/22 11:59:50;;;;;;;;;;;;;;;12.00;53.48;99739.47;5093376;28;19916;-77
2021/10/22 12:02:18;;;;;;;;;;;;;;;11.99;53.68;99742.22;5093152;28;19916;-74
2021/10/22 12:04:45;;;;;;;;;;;;;;;11.80;54.00;99732.63;5097612;28;19956;-74
2021/10/22 12:07:10;;;;;;;;;;;;;;;11.76;54.14;99736.38;5100979;28;19920;-73
2021/10/22 12:09:40;;;;;;;;;;;;;;;11.74;54.61;99742.66;5096222;28;19916;-75
2021/10/22 12:12:07;;;;;;;;;;;;;;;11.69;54.72;99742.94;5097391;28;19937;-75
2021/10/22 12:14:43;;;;;;;;;;;;;;;11.60;54.74;99748.69;5094016;28;20371;-74
2021/10/22 12:17:10;;;;;;;;;;;;;;;11.49;55.02;99743.97;5094393;28;19965;-75
2021/10/22 12:19:37;;;;;;;;;;;;;;;11.48;55.46;99741.44;5093879;28;19920;-74
2021/10/22 12:22:02;;;;;;;;;;;;;;;11.56;55.23;99747.16;5073350;28;19992;-76
2021/10/22 12:24:48;;;;;;;;;;;;;;;11.58;55.34;99746.13;5074856;28;19924;-74
2021/10/22 12:27:13;;;;;;;;;;;;;;;11.49;54.96;99738.69;5074226;28;19948;-75
2021/10/22 12:29:54;;;;;;;;;;;;;;;11.37;55.20;99753.44;5092711;28;19955;-75
2021/10/22 12:32:33;;;;;;;;;;;;;;;11.30;55.65;99765.25;5091161;28;19948;-75
2021/10/22 12:34:58;;;;;;;;;;;;;;;11.24;56.06;99755.00;5091606;28;19916;-75
2021/10/22 12:37:33;;;;;;;;;;;;;;;11.17;56.61;99757.13;5091502;28;19939;-76
2021/10/22 12:39:59;;;;;;;;;;;;;;;11.21;56.58;99760.44;5073093;28;20002;-73
2021/10/22 12:42:26;;;;;;;;;;;;;;;11.20;56.62;99766.66;5091252;28;20346;-75
2021/10/22 12:45:11;;;;;;;;;;;;;;;11.20;56.52;99761.38;5091479;28;19922;-74
2021/10/22 12:47:40;;;;;;;;;;;;;;;11.16;56.95;99778.31;5083246;28;19920;-75
2021/10/22 12:50:05;;;;;;;;;;;;;;;11.17;56.92;99778.22;5090444;28;19966;-75
2021/10/22 12:52:31;;;;;;;;;;;;;;;11.14;57.22;99780.16;5072564;28;19916;-75
2021/10/22 12:54:56;;;;;;;;;;;;;;;11.13;57.63;99786.38;5090374;28;19920;-75